Main page
METAR-TAF:

METAR-TAF

Airports :

Harrisburg-Raleigh Airport

Harrisburg, Illinois, United States

latitude: 37-48-41N, longitude: 088-32-57W, elevation: 397 ft

Current weather observation

The report was made 33 minutes ago, at 05:15 UTC
Calm wind
Temperature 72°F
Humidity 100%
Pressure 30.25 in. Hg
Visibility: 10 miles
Clear sky

METAR: KHSB 200515Z AUTO 00000KT 10SM CLR 22/22 A3025 RMK AO2 T02210216

Time: 00:48 (05:48 UTC)


TAF: missing

Weather observations and forecasts of more than 4000 airports (METAR and TAF reports).

The available stations are represented by yellow and red dots on the map.

Hover mouse over dot to see the name of the station.

Then click to see weather observations and forecasts.

To change the map : click on the green buttons with a black cross to zoom in, on the green button with a dash to zoom out, or on the green arrows for adjacent maps.


METAR-TAF: